Time;durP1;ratioP1;P1;durP2;ratioP2;P2;SDS_P1;SDS_P2;PMS_P1;PMS_P2;Temp;Humidity;BMP_temperature;BMP_pressure;BME280_temperature;BME280_humidity;BME280_pressure;Samples;Min_cycle;Max_cycle;Signal;HPM_P1;HPM_P2
2023/11/01 00:02:05;;;;;;;5.00;2.22;;;;;;;19.41;52.16;100249.63;5034944;28;20489;-59
2023/11/01 00:04:30;;;;;;;5.65;1.55;;;;;;;19.41;52.06;100243.34;5034840;28;20030;-59
2023/11/01 00:06:57;;;;;;;3.85;0.90;;;;;;;19.42;51.84;100239.63;5033390;28;20523;-60
2023/11/01 00:09:22;;;;;;;2.60;0.70;;;;;;;19.40;52.15;100236.28;5033457;28;20034;-59
2023/11/01 00:11:48;;;;;;;5.43;1.27;;;;;;;19.41;52.40;100243.34;5033458;28;20041;-59
2023/11/01 00:14:14;;;;;;;4.20;1.15;;;;;;;19.39;51.97;100237.31;5034716;28;20026;-59
2023/11/01 00:16:40;;;;;;;5.60;1.27;;;;;;;19.38;52.02;100227.44;5016953;28;20075;-61
2023/11/01 00:19:05;;;;;;;4.35;0.77;;;;;;;19.37;51.77;100223.91;5034749;28;20056;-59
2023/11/01 00:21:31;;;;;;;9.57;1.80;;;;;;;19.36;51.74;100216.78;5034639;28;20037;-59
2023/11/01 00:23:57;;;;;;;9.43;1.42;;;;;;;19.36;51.78;100214.06;5033281;28;20092;-60
2023/11/01 00:26:22;;;;;;;1.38;0.85;;;;;;;19.34;52.18;100212.59;5020995;28;20110;-60
2023/11/01 00:28:48;;;;;;;7.32;1.67;;;;;;;19.32;51.85;100211.97;5022491;28;20081;-59
2023/11/01 00:31:14;;;;;;;6.18;0.90;;;;;;;19.27;51.99;100204.41;5016626;28;20484;-60
2023/11/01 00:33:39;;;;;;;2.20;0.88;;;;;;;19.28;52.27;100206.09;5033105;28;20025;-59
2023/11/01 00:36:05;;;;;;;3.55;1.20;;;;;;;19.28;52.00;100202.53;5033173;28;20168;-59
2023/11/01 00:38:35;;;;;;;4.55;1.27;;;;;;;19.25;52.25;100202.91;5034201;28;20040;-59
2023/11/01 00:41:04;;;;;;;11.23;1.67;;;;;;;19.19;51.91;100199.97;5033001;28;20037;-59
2023/11/01 00:43:30;;;;;;;2.90;0.95;;;;;;;19.18;52.38;100201.00;5034096;28;20039;-59
2023/11/01 00:45:55;;;;;;;2.33;0.93;;;;;;;19.14;52.21;100191.59;5034171;28;20164;-59
2023/11/01 00:48:21;;;;;;;9.75;1.10;;;;;;;19.13;52.14;100187.19;5032886;28;20108;-59
2023/11/01 00:50:46;;;;;;;5.00;0.90;;;;;;;19.14;52.48;100186.16;5034309;28;20077;-60
2023/11/01 00:53:12;;;;;;;1.52;0.93;;;;;;;19.15;52.19;100190.53;5033579;28;20025;-59
2023/11/01 00:55:37;;;;;;;9.02;0.90;;;;;;;19.12;52.30;100177.34;5034188;28;20037;-59
2023/11/01 00:58:02;;;;;;;4.18;1.25;;;;;;;19.13;52.59;100175.50;5033594;28;20049;-59
2023/11/01 01:00:28;;;;;;;7.25;1.00;;;;;;;19.09;52.37;100168.81;5034536;28;20104;-59
2023/11/01 01:02:53;;;;;;;4.28;1.10;;;;;;;19.05;52.30;100162.91;5032175;28;20041;-59
2023/11/01 01:05:18;;;;;;;4.88;1.20;;;;;;;19.07;52.46;100160.84;5032329;28;20120;-59
2023/11/01 01:07:44;;;;;;;2.15;1.17;;;;;;;19.04;52.92;100161.25;5033339;28;20396;-59
2023/11/01 01:10:09;;;;;;;4.28;1.02;;;;;;;19.06;52.86;100151.03;5032333;28;20136;-59
2023/11/01 01:12:34;;;;;;;4.40;1.55;;;;;;;19.05;52.81;100153.94;5025783;28;20049;-60
2023/11/01 01:15:01;;;;;;;2.78;1.25;;;;;;;19.04;52.79;100142.22;5048873;28;20034;-59
2023/11/01 01:17:26;;;;;;;2.30;1.65;;;;;;;19.02;52.66;100141.59;5032088;28;20080;-59
2023/11/01 01:19:51;;;;;;;3.88;1.08;;;;;;;19.01;53.25;100137.19;5033787;28;20485;-59
2023/11/01 01:22:17;;;;;;;10.13;1.73;;;;;;;18.98;52.93;100143.03;5014823;28;20117;-60
2023/11/01 01:24:42;;;;;;;4.25;1.50;;;;;;;18.96;53.15;100136.97;5031916;28;20094;-59
2023/11/01 01:27:07;;;;;;;6.57;1.17;;;;;;;18.97;52.90;100141.38;5033161;28;20029;-59
2023/11/01 01:29:33;;;;;;;4.72;0.90;;;;;;;18.94;52.86;100139.06;5033518;28;20029;-62
2023/11/01 01:31:58;;;;;;;2.80;1.13;;;;;;;18.92;53.17;100130.28;5031916;28;20155;-63
2023/11/01 01:34:23;;;;;;;5.38;0.95;;;;;;;18.95;53.31;100123.63;5031946;28;20109;-63
2023/11/01 01:36:49;;;;;;;4.68;1.50;;;;;;;18.95;52.91;100129.88;5033007;28;20061;-63
2023/11/01 01:39:14;;;;;;;4.97;1.02;;;;;;;19.00;52.75;100129.28;5033099;28;20507;-62
2023/11/01 01:41:40;;;;;;;3.95;1.38;;;;;;;18.98;52.74;100124.03;5033011;28;20079;-63
2023/11/01 01:44:05;;;;;;;3.33;0.77;;;;;;;18.96;53.47;100109.81;5031462;28;20108;-63
2023/11/01 01:46:31;;;;;;;4.78;0.90;;;;;;;18.91;52.92;100112.31;5031447;28;20026;-63
2023/11/01 01:48:57;;;;;;;2.58;0.90;;;;;;;18.90;53.18;100105.19;5031794;28;20493;-67
2023/11/01 01:51:25;;;;;;;4.85;1.73;;;;;;;18.85;53.45;100101.41;5014972;28;20551;-68
2023/11/01 01:53:51;;;;;;;3.85;0.95;;;;;;;18.79;53.77;100103.03;5014884;28;20181;-68
2023/11/01 01:56:18;;;;;;;2.92;1.27;;;;;;;18.71;53.80;100084.22;5033229;28;20124;-68
2023/11/01 01:58:44;;;;;;;3.05;1.10;;;;;;;18.67;54.35;100084.81;5031915;28;20038;-68
2023/11/01 02:01:10;;;;;;;4.65;1.02;;;;;;;18.59;53.70;100088.53;5031907;28;20437;-68
2023/11/01 02:03:37;;;;;;;2.78;0.65;;;;;;;18.55;54.47;100082.66;5031496;28;20075;-68
2023/11/01 02:06:03;;;;;;;5.57;0.70;;;;;;;18.47;54.52;100081.94;5033051;28;20037;-68
2023/11/01 02:08:29;;;;;;;3.10;0.65;;;;;;;18.38;54.42;100077.72;5036586;28;20112;-69
2023/11/01 02:10:55;;;;;;;1.02;0.43;;;;;;;18.32;54.18;100068.50;5022003;28;20026;-70
2023/11/01 02:13:20;;;;;;;6.95;1.35;;;;;;;18.25;54.63;100067.63;5021950;28;20399;-68
2023/11/01 02:15:46;;;;;;;4.07;0.60;;;;;;;18.16;54.35;100055.25;5038332;28;20514;-68
2023/11/01 02:18:12;;;;;;;2.95;0.50;;;;;;;18.12;54.77;100056.66;5038186;28;20026;-67
2023/11/01 02:20:39;;;;;;;2.78;0.73;;;;;;;18.12;54.51;100064.78;5021827;28;20039;-69
2023/11/01 02:23:08;;;;;;;2.38;0.50;;;;;;;18.09;55.27;100064.38;5037265;28;20087;-69
2023/11/01 02:25:34;;;;;;;2.67;0.60;;;;;;;18.06;54.85;100053.91;5021776;28;20061;-71
2023/11/01 02:28:00;;;;;;;2.55;0.75;;;;;;;18.03;55.33;100061.38;5038807;28;20425;-72
2023/11/01 02:30:26;;;;;;;2.17;0.98;;;;;;;18.00;54.88;100059.09;5039413;28;20037;-69
2023/11/01 02:32:51;;;;;;;3.17;1.33;;;;;;;17.99;55.79;100051.97;5039705;28;20398;-70
2023/11/01 02:35:17;;;;;;;4.93;0.98;;;;;;;18.01;55.53;100044.47;5038412;28;20041;-73
2023/11/01 02:37:43;;;;;;;5.20;0.80;;;;;;;17.98;55.18;100038.59;5039487;28;20088;-71
2023/11/01 02:40:09;;;;;;;1.33;1.10;;;;;;;18.02;55.68;100040.75;5021375;28;20496;-61
2023/11/01 02:42:45;;;;;;;3.72;0.75;;;;;;;18.01;55.43;100025.50;5038966;28;20040;-61
2023/11/01 02:45:11;;;;;;;4.13;1.10;;;;;;;18.04;55.47;100032.41;5037978;28;20033;-61
2023/11/01 02:47:40;;;;;;;4.90;1.58;;;;;;;18.03;55.82;100026.16;5037859;28;20125;-62
2023/11/01 02:50:10;;;;;;;1.13;0.50;;;;;;;18.03;55.93;100022.63;5037728;28;20029;-62
2023/11/01 02:52:37;;;;;;;1.38;0.60;;;;;;;18.01;56.04;100017.38;5037757;28;20033;-61
2023/11/01 02:55:05;;;;;;;1.77;0.60;;;;;;;18.02;55.34;100021.78;5038963;28;20025;-61
2023/11/01 02:57:34;;;;;;;3.92;0.68;;;;;;;18.04;55.90;100014.28;5037859;28;20571;-61
2023/11/01 03:00:00;;;;;;;2.55;0.80;;;;;;;18.09;55.64;100015.56;5033248;28;20037;-61
2023/11/01 03:02:25;;;;;;;4.07;0.90;;;;;;;18.10;56.17;100009.09;5037650;28;20033;-61
2023/11/01 03:04:51;;;;;;;5.97;0.68;;;;;;;18.11;56.26;100010.78;5037530;28;20040;-61
2023/11/01 03:07:16;;;;;;;2.00;0.60;;;;;;;18.10;56.00;100017.22;5037669;28;20524;-61
2023/11/01 03:09:42;;;;;;;1.55;0.90;;;;;;;18.12;56.18;100017.91;5021076;28;20079;-61
2023/11/01 03:12:07;;;;;;;1.20;0.50;;;;;;;18.11;55.89;100008.91;5037183;28;20030;-60
2023/11/01 03:14:33;;;;;;;2.83;0.70;;;;;;;18.14;56.04;99994.13;5037520;28;20456;-61
2023/11/01 03:16:58;;;;;;;2.15;0.60;;;;;;;18.17;56.37;100004.56;5037707;28;20113;-60
2023/11/01 03:19:23;;;;;;;3.40;1.40;;;;;;;18.21;56.37;100003.13;5035700;28;20501;-60
2023/11/01 03:21:49;;;;;;;2.17;0.68;;;;;;;18.25;56.30;100007.13;5017972;28;20493;-60
2023/11/01 03:24:14;;;;;;;0.60;0.60;;;;;;;18.25;56.45;100007.13;5034377;28;20452;-60
2023/11/01 03:26:40;;;;;;;3.47;1.23;;;;;;;18.28;56.27;100006.72;5017829;28;20493;-60
2023/11/01 03:29:06;;;;;;;0.68;0.63;;;;;;;18.30;56.37;100010.06;5017822;28;20041;-60
2023/11/01 03:31:31;;;;;;;3.67;1.50;;;;;;;18.28;55.86;100004.03;5017606;28;20037;-60
2023/11/01 03:33:56;;;;;;;1.33;0.50;;;;;;;18.28;56.62;100004.88;5034118;28;20022;-60
2023/11/01 03:36:22;;;;;;;2.22;0.60;;;;;;;18.28;56.22;99993.19;5033877;28;20042;-60
2023/11/01 03:38:47;;;;;;;2.03;0.60;;;;;;;18.32;56.77;99989.84;5034453;28;20038;-59
2023/11/01 03:41:12;;;;;;;1.17;0.70;;;;;;;18.33;56.65;99985.28;5035262;28;20045;-59
2023/11/01 03:43:37;;;;;;;6.32;0.82;;;;;;;18.35;56.52;100008.44;5017419;28;20053;-59
2023/11/01 03:46:03;;;;;;;3.90;0.65;;;;;;;18.38;56.70;100007.19;5017360;28;20045;-59
2023/11/01 03:48:29;;;;;;;1.95;1.10;;;;;;;18.38;56.54;99988.22;5033782;28;20037;-60
2023/11/01 03:50:54;;;;;;;2.92;0.50;;;;;;;18.41;57.18;99985.09;5033980;28;20034;-59
2023/11/01 03:53:20;;;;;;;4.40;0.73;;;;;;;18.42;56.68;99981.38;5030296;28;20037;-60
2023/11/01 03:55:45;;;;;;;1.05;0.47;;;;;;;18.45;56.89;99989.91;5017190;28;20040;-60
2023/11/01 03:58:10;;;;;;;2.95;0.85;;;;;;;18.48;56.59;99991.47;5033816;28;20025;-60
2023/11/01 04:00:36;;;;;;;2.58;0.90;;;;;;;18.49;56.63;99993.13;5033816;28;20036;-60
2023/11/01 04:03:01;;;;;;;2.60;1.65;;;;;;;18.50;56.76;99989.38;5033946;28;20049;-60
2023/11/01 04:05:26;;;;;;;4.60;0.95;;;;;;;18.54;57.01;99996.91;5033617;28;20409;-60
2023/11/01 04:07:52;;;;;;;5.82;1.23;;;;;;;18.58;57.04;99991.91;5033524;28;20079;-60
2023/11/01 04:10:18;;;;;;;2.13;0.82;;;;;;;18.60;57.37;99992.53;5017210;28;20025;-60
2023/11/01 04:12:43;;;;;;;1.65;0.63;;;;;;;18.61;56.73;99994.22;5033532;28;20045;-59
2023/11/01 04:15:10;;;;;;;4.70;1.38;;;;;;;18.63;56.80;99989.44;5016953;28;20397;-59
2023/11/01 04:17:37;;;;;;;7.32;1.05;;;;;;;18.64;56.87;99990.28;5033468;28;20061;-59
2023/11/01 04:20:03;;;;;;;5.82;0.82;;;;;;;18.66;56.93;99999.88;5033359;28;20441;-59
2023/11/01 04:22:28;;;;;;;7.70;1.08;;;;;;;18.67;57.08;99996.13;5032907;28;20056;-63
2023/11/01 04:24:57;;;;;;;9.02;0.98;;;;;;;18.66;56.92;99982.75;5033163;28;20078;-61
2023/11/01 04:27:23;;;;;;;8.00;1.10;;;;;;;18.69;57.45;99993.22;5034448;28;20289;-61
2023/11/01 04:29:54;;;;;;;3.28;0.70;;;;;;;18.72;56.78;99977.38;5034307;28;20029;-59
2023/11/01 04:32:22;;;;;;;4.25;1.17;;;;;;;18.76;56.99;99988.66;5034006;28;20489;-61
2023/11/01 04:34:49;;;;;;;5.32;1.02;;;;;;;18.76;57.14;99983.25;5034204;28;20437;-59
2023/11/01 04:37:16;;;;;;;7.70;1.95;;;;;;;18.78;56.89;99981.16;5034459;28;20101;-59
2023/11/01 04:39:46;;;;;;;1.85;1.02;;;;;;;18.78;56.85;99975.72;5016628;28;20030;-58
2023/11/01 04:42:15;;;;;;;3.03;0.80;;;;;;;18.81;56.71;99981.59;5033409;28;20068;-59
2023/11/01 04:44:44;;;;;;;5.22;1.48;;;;;;;18.80;56.91;99966.34;5017007;28;20486;-59
2023/11/01 04:47:10;;;;;;;8.40;1.23;;;;;;;18.84;56.98;99975.75;5034332;28;20029;-58
2023/11/01 04:49:35;;;;;;;5.90;0.90;;;;;;;18.85;57.08;99965.72;5033034;28;20029;-58
2023/11/01 04:52:01;;;;;;;4.50;0.60;;;;;;;18.82;56.99;99964.25;5016494;28;20505;-59
2023/11/01 04:54:26;;;;;;;2.95;1.08;;;;;;;18.84;57.08;99959.47;5034282;28;20026;-59
2023/11/01 04:56:52;;;;;;;3.40;1.17;;;;;;;18.80;57.02;99952.78;5031512;28;20431;-60
2023/11/01 04:59:18;;;;;;;4.32;2.38;;;;;;;18.85;57.01;99954.84;5016278;28;20029;-59
2023/11/01 05:01:43;;;;;;;3.90;1.00;;;;;;;18.85;56.75;99950.28;5032785;28;20037;-61
2023/11/01 05:04:09;;;;;;;8.80;1.45;;;;;;;18.86;56.62;99946.53;5033843;28;20394;-61
2023/11/01 05:06:34;;;;;;;3.40;0.85;;;;;;;18.88;56.52;99957.16;5033050;28;20497;-60
2023/11/01 05:09:00;;;;;;;8.27;1.80;;;;;;;18.88;56.79;99949.03;5015098;28;20037;-60
2023/11/01 05:11:26;;;;;;;8.10;1.02;;;;;;;18.90;56.02;99945.06;5033546;28;20091;-58
2023/11/01 05:13:51;;;;;;;8.07;1.23;;;;;;;18.96;56.49;99948.84;5032255;28;20404;-58
2023/11/01 05:16:16;;;;;;;6.57;0.98;;;;;;;18.96;56.20;99941.53;5032242;28;20500;-58
2023/11/01 05:18:42;;;;;;;6.40;1.00;;;;;;;19.02;56.49;99940.72;5032213;28;20489;-59
2023/11/01 05:21:07;;;;;;;6.32;1.95;;;;;;;19.03;56.04;99936.97;5033783;28;20039;-58
2023/11/01 05:23:32;;;;;;;7.43;0.93;;;;;;;19.07;56.25;99943.66;5015438;28;20037;-59
2023/11/01 05:25:59;;;;;;;5.15;0.77;;;;;;;19.07;56.17;99935.50;5033347;28;20441;-59
2023/11/01 05:28:25;;;;;;;3.72;0.90;;;;;;;19.08;55.93;99939.91;5032096;28;20056;-59
2023/11/01 05:30:50;;;;;;;1.80;0.85;;;;;;;19.08;55.72;99929.03;5015452;28;20408;-59
2023/11/01 05:33:18;;;;;;;9.52;1.10;;;;;;;19.11;55.82;99942.22;5031686;28;20531;-59
2023/11/01 05:35:43;;;;;;;7.28;0.80;;;;;;;19.09;55.81;99925.31;5033364;28;20037;-59
2023/11/01 05:38:09;;;;;;;9.45;1.00;;;;;;;19.10;55.41;99932.38;5015593;28;20021;-59
2023/11/01 05:40:34;;;;;;;7.80;1.30;;;;;;;19.11;55.58;99928.63;5032401;28;20025;-59
2023/11/01 05:43:00;;;;;;;9.82;1.10;;;;;;;19.12;55.74;99929.47;5015255;28;20048;-59
2023/11/01 05:45:25;;;;;;;2.13;1.38;;;;;;;19.11;55.40;99925.91;5031560;28;20033;-58
2023/11/01 05:47:50;;;;;;;5.07;1.38;;;;;;;19.11;55.41;99925.91;5031995;28;20088;-59
2023/11/01 05:50:23;;;;;;;4.03;0.70;;;;;;;19.10;55.57;99926.94;5015188;28;20435;-58
2023/11/01 05:52:48;;;;;;;5.05;1.30;;;;;;;19.10;55.57;99926.09;5031882;28;20578;-59
2023/11/01 05:55:15;;;;;;;5.03;1.48;;;;;;;19.11;55.37;99925.91;5033160;28;20037;-59
2023/11/01 05:57:41;;;;;;;3.40;0.85;;;;;;;19.10;55.48;99921.53;5016289;28;20021;-59
2023/11/01 06:00:10;;;;;;;7.57;1.67;;;;;;;19.09;55.61;99919.88;5034466;28;20029;-63
2023/11/01 06:02:39;;;;;;;8.73;1.70;;;;;;;19.06;56.07;99917.56;5033968;28;20042;-59
2023/11/01 06:05:05;;;;;;;6.80;1.13;;;;;;;19.08;55.82;99922.78;5032215;28;20132;-64
2023/11/01 06:07:32;;;;;;;8.05;1.52;;;;;;;19.07;55.36;99927.38;5032740;28;20034;-59
2023/11/01 06:09:57;;;;;;;8.25;1.25;;;;;;;19.09;55.32;99929.88;5031606;28;20528;-59
2023/11/01 06:12:22;;;;;;;7.43;1.95;;;;;;;19.08;55.45;99929.03;5017805;28;20130;-59
2023/11/01 06:14:48;;;;;;;5.20;1.10;;;;;;;19.05;55.92;99924.03;5012187;28;20038;-58
2023/11/01 06:17:13;;;;;;;9.90;1.88;;;;;;;19.08;55.28;99923.63;5011681;28;20030;-59
2023/11/01 06:19:39;;;;;;;9.05;1.42;;;;;;;19.06;56.04;99925.72;5013063;28;20041;-59
2023/11/01 06:22:04;;;;;;;6.13;1.02;;;;;;;19.12;55.32;99932.19;5011516;28;20030;-59
2023/11/01 06:24:31;;;;;;;3.67;2.03;;;;;;;19.13;55.73;99931.13;5011148;28;20404;-58
2023/11/01 06:26:57;;;;;;;5.28;0.98;;;;;;;19.14;55.71;99928.22;5011154;28;20046;-59
2023/11/01 06:29:22;;;;;;;6.22;1.58;;;;;;;19.14;55.28;99927.38;5013016;28;20378;-58
2023/11/01 06:31:48;;;;;;;13.50;2.33;;;;;;;19.17;55.63;99927.81;5012770;28;20528;-58
2023/11/01 06:34:13;;;;;;;5.70;1.20;;;;;;;19.17;55.71;99926.97;5011636;28;20030;-60
2023/11/01 06:36:38;;;;;;;3.38;1.10;;;;;;;19.23;55.89;99925.31;5011965;28;20553;-59
2023/11/01 06:39:04;;;;;;;4.75;1.20;;;;;;;19.23;56.09;99917.16;5011395;28;20065;-59
2023/11/01 06:41:29;;;;;;;8.70;0.90;;;;;;;19.25;55.67;99915.06;5011616;28;20038;-59
2023/11/01 06:43:54;;;;;;;10.27;1.30;;;;;;;19.30;55.80;99921.56;5011649;28;20069;-59
2023/11/01 06:46:20;;;;;;;9.57;1.17;;;;;;;19.34;55.24;99930.13;5015074;28;20084;-59
2023/11/01 06:48:45;;;;;;;8.73;1.27;;;;;;;19.35;55.02;99924.47;5031279;28;20032;-59
2023/11/01 06:51:11;;;;;;;9.15;1.60;;;;;;;19.39;55.09;99924.94;5032682;28;20111;-59
2023/11/01 06:53:37;;;;;;;5.88;1.25;;;;;;;19.42;55.36;99921.81;5031459;28;20057;-59
2023/11/01 06:56:03;;;;;;;7.78;1.88;;;;;;;19.44;55.51;99925.13;5017522;28;20033;-59
2023/11/01 06:58:29;;;;;;;5.50;1.35;;;;;;;19.47;55.23;99928.28;5036081;28;20099;-59
2023/11/01 07:00:54;;;;;;;7.18;1.75;;;;;;;19.52;55.31;99935.78;5034974;28;20528;-59
2023/11/01 07:03:20;;;;;;;5.00;1.13;;;;;;;19.53;54.90;99932.03;5034765;28;20524;-59
2023/11/01 07:05:46;;;;;;;4.28;1.58;;;;;;;19.53;54.86;99941.03;5034701;28;20049;-59
2023/11/01 07:08:12;;;;;;;7.55;1.35;;;;;;;19.49;54.82;99925.34;5036375;28;20083;-59
2023/11/01 07:10:37;;;;;;;10.27;1.67;;;;;;;19.54;55.31;99920.13;5035026;28;20467;-59
2023/11/01 07:13:03;;;;;;;7.95;1.25;;;;;;;19.60;55.15;99933.69;5037310;28;20595;-59
2023/11/01 07:15:29;;;;;;;2.65;0.95;;;;;;;19.63;55.47;99929.72;5035643;28;20037;-59
2023/11/01 07:17:54;;;;;;;4.70;0.70;;;;;;;19.66;55.25;99932.03;5034783;28;20452;-59
2023/11/01 07:20:19;;;;;;;7.82;1.48;;;;;;;19.66;55.14;99927.44;5018178;28;20121;-59
2023/11/01 07:22:45;;;;;;;9.48;1.13;;;;;;;19.70;55.02;99933.28;5035811;28;20034;-60
2023/11/01 07:25:10;;;;;;;6.63;1.10;;;;;;;19.70;55.32;99928.69;5018311;28;20048;-59
2023/11/01 07:27:35;;;;;;;9.52;0.95;;;;;;;19.76;54.83;99933.28;5035787;28;20033;-59
2023/11/01 07:30:01;;;;;;;4.88;1.45;;;;;;;19.79;55.00;99928.47;5018115;28;20378;-60
2023/11/01 07:32:26;;;;;;;8.38;1.50;;;;;;;19.80;55.02;99933.69;5034267;28;20041;-60
2023/11/01 07:34:51;;;;;;;9.65;1.58;;;;;;;19.83;55.00;99933.28;5033986;28;20029;-60
2023/11/01 07:37:17;;;;;;;11.35;1.77;;;;;;;19.86;54.98;99930.13;5035634;28;20026;-60
2023/11/01 07:39:42;;;;;;;2.28;0.98;;;;;;;19.91;55.00;99927.63;5035524;28;20030;-60
2023/11/01 07:42:07;;;;;;;7.97;1.40;;;;;;;19.98;54.55;99931.19;5035073;28;20029;-60
2023/11/01 07:44:33;;;;;;;8.10;1.90;;;;;;;20.01;55.03;99930.75;5035393;28;20037;-60
2023/11/01 07:46:58;;;;;;;7.25;1.13;;;;;;;20.06;54.65;99932.81;5033930;28;20497;-60
2023/11/01 07:49:23;;;;;;;5.63;1.00;;;;;;;20.09;54.98;99933.25;5017545;28;20163;-60
2023/11/01 07:51:49;;;;;;;2.92;1.50;;;;;;;20.09;54.90;99935.97;5034150;28;20030;-60
2023/11/01 07:54:14;;;;;;;8.05;1.33;;;;;;;20.13;54.42;99922.75;5033774;28;20025;-60
2023/11/01 07:56:40;;;;;;;3.08;1.52;;;;;;;20.15;54.15;99926.97;5014098;28;20513;-60
2023/11/01 07:59:06;;;;;;;10.52;1.70;;;;;;;20.21;55.03;99928.78;5015392;28;20033;-60
2023/11/01 08:01:31;;;;;;;2.60;1.00;;;;;;;20.29;53.79;99928.63;5014319;28;20034;-60
2023/11/01 08:03:57;;;;;;;3.63;1.48;;;;;;;20.37;54.34;99918.53;5014972;28;20060;-60
2023/11/01 08:06:23;;;;;;;12.38;2.83;;;;;;;20.41;54.49;99931.50;5013407;28;20088;-60
2023/11/01 08:08:49;;;;;;;5.32;1.02;;;;;;;20.43;54.07;99928.56;5014981;28;20117;-60
2023/11/01 08:11:15;;;;;;;6.75;1.40;;;;;;;20.45;54.25;99913.69;5013947;28;20041;-59
2023/11/01 08:13:40;;;;;;;5.53;1.40;;;;;;;20.49;53.99;99920.38;5015305;28;20040;-60
2023/11/01 08:16:06;;;;;;;7.20;1.00;;;;;;;20.51;53.71;99912.00;5033353;28;20038;-62
2023/11/01 08:18:31;;;;;;;6.78;1.73;;;;;;;20.54;53.64;99914.28;5009969;28;20030;-62
2023/11/01 08:20:57;;;;;;;11.18;1.20;;;;;;;20.54;53.33;99908.84;5013621;28;20030;-61
2023/11/01 08:23:22;;;;;;;9.95;1.80;;;;;;;20.55;53.56;99915.94;5013573;28;20038;-59
2023/11/01 08:25:47;;;;;;;8.95;0.95;;;;;;;20.54;53.53;99917.03;5013412;28;20421;-60
2023/11/01 08:28:13;;;;;;;4.40;1.05;;;;;;;20.53;53.84;99912.63;5017179;28;20044;-60
2023/11/01 08:30:38;;;;;;;3.95;0.90;;;;;;;20.54;53.57;99908.84;5001639;28;20032;-60
2023/11/01 08:33:03;;;;;;;5.07;1.40;;;;;;;20.53;53.69;99904.44;4997009;28;20532;-60
2023/11/01 08:35:29;;;;;;;5.15;1.38;;;;;;;20.55;53.65;99899.63;5013341;28;20113;-60
2023/11/01 08:37:55;;;;;;;9.70;1.30;;;;;;;20.55;53.49;99905.91;5014562;28;20045;-60
2023/11/01 08:40:20;;;;;;;5.13;1.75;;;;;;;20.57;53.16;99908.41;5013085;28;20048;-60
2023/11/01 08:42:45;;;;;;;9.13;1.17;;;;;;;20.58;53.58;99907.34;5013259;28;20501;-60
2023/11/01 08:45:11;;;;;;;5.45;1.05;;;;;;;20.62;53.21;99905.88;5014322;28;20434;-62
2023/11/01 08:47:41;;;;;;;8.13;1.23;;;;;;;20.68;53.23;99910.47;5012895;28;20038;-61
2023/11/01 08:50:11;;;;;;;4.00;1.13;;;;;;;20.76;53.26;99918.38;4996835;28;20044;-62
2023/11/01 08:52:39;;;;;;;6.60;1.15;;;;;;;20.82;53.09;99903.91;5014341;28;20039;-62
2023/11/01 08:55:06;;;;;;;3.58;1.33;;;;;;;20.88;52.09;99903.84;5012904;28;20033;-61
2023/11/01 08:57:31;;;;;;;6.65;1.13;;;;;;;20.96;52.99;99899.22;5014152;28;20026;-62
2023/11/01 08:59:57;;;;;;;7.88;1.27;;;;;;;20.95;52.62;99892.91;5014049;28;20053;-61
2023/11/01 09:02:25;;;;;;;5.72;1.08;;;;;;;21.04;52.23;99898.94;4996316;28;20030;-62
2023/11/01 09:04:51;;;;;;;6.10;0.90;;;;;;;21.08;51.67;99894.78;5012755;28;20034;-61
2023/11/01 09:07:16;;;;;;;4.20;0.70;;;;;;;21.14;52.52;99897.44;5012820;28;20569;-62
2023/11/01 09:09:42;;;;;;;4.65;0.95;;;;;;;21.29;52.09;99881.63;5013750;28;20034;-62
2023/11/01 09:12:07;;;;;;;5.95;1.02;;;;;;;21.39;51.79;99875.66;5033775;28;20029;-61
2023/11/01 09:14:33;;;;;;;13.45;1.70;;;;;;;21.54;51.01;99880.75;5032161;28;20601;-62
2023/11/01 09:16:58;;;;;;;6.35;1.15;;;;;;;21.77;51.68;99878.25;5033144;28;20075;-62
2023/11/01 09:19:23;;;;;;;3.28;0.60;;;;;;;22.00;50.62;99857.47;5033168;28;20037;-62
2023/11/01 09:21:49;;;;;;;2.28;0.77;;;;;;;22.32;50.38;99873.66;5032397;28;20494;-62
2023/11/01 09:24:15;;;;;;;10.02;0.82;;;;;;;22.71;50.05;99866.88;5033574;28;20522;-61
2023/11/01 09:26:40;;;;;;;5.65;1.15;;;;;;;22.95;49.49;99857.69;5033332;28;20040;-62
2023/11/01 09:29:06;;;;;;;16.48;1.83;;;;;;;23.37;49.59;99859.34;5033570;28;20033;-62
2023/11/01 09:31:37;;;;;;;2.33;1.38;;;;;;;23.98;47.78;99860.81;5033497;28;20056;-62
2023/11/01 09:34:02;;;;;;;5.93;0.93;;;;;;;24.36;47.89;99855.66;5032218;28;20029;-62
2023/11/01 09:36:28;;;;;;;7.93;1.17;;;;;;;24.82;47.39;99858.22;5033281;28;20029;-62
2023/11/01 09:38:53;;;;;;;5.20;0.75;;;;;;;24.63;47.36;99850.41;5033334;28;20467;-62
2023/11/01 09:41:28;;;;;;;2.28;0.93;;;;;;;24.32;47.76;99851.72;5032075;28;20029;-62
2023/11/01 09:43:59;;;;;;;5.03;1.95;;;;;;;24.02;47.96;99846.41;5031619;28;20046;-64
2023/11/01 09:46:26;;;;;;;4.50;1.10;;;;;;;23.95;47.75;99845.72;5031720;28;20481;-62
2023/11/01 09:48:54;;;;;;;9.35;1.02;;;;;;;23.83;47.89;99833.94;5031750;28;20040;-62
2023/11/01 09:51:21;;;;;;;4.25;0.90;;;;;;;23.99;48.05;99840.56;5032859;28;20489;-62
2023/11/01 09:53:46;;;;;;;3.40;0.82;;;;;;;24.37;47.03;99853.75;5031777;28;20104;-62
2023/11/01 09:56:12;;;;;;;4.20;1.15;;;;;;;24.65;45.99;99840.88;5031531;28;20113;-62
2023/11/01 09:58:38;;;;;;;6.18;0.90;;;;;;;25.06;45.80;99839.75;5031856;28;20481;-62
2023/11/01 10:01:04;;;;;;;4.63;0.73;;;;;;;25.13;45.53;99836.84;5015147;28;20404;-62
2023/11/01 10:03:29;;;;;;;5.35;0.90;;;;;;;24.86;46.24;99831.19;5031546;28;20045;-62
2023/11/01 10:05:55;;;;;;;4.55;1.17;;;;;;;24.91;46.07;99839.47;5031642;28;20036;-62
2023/11/01 10:08:20;;;;;;;7.13;1.13;;;;;;;25.57;44.96;99827.75;5031982;28;20036;-62
2023/11/01 10:10:45;;;;;;;4.05;0.82;;;;;;;25.89;44.42;99823.28;5032760;28;20040;-62
2023/11/01 10:13:11;;;;;;;10.43;0.80;;;;;;;25.63;44.53;99825.91;5032022;28;20025;-62
2023/11/01 10:15:38;;;;;;;3.00;0.85;;;;;;;25.67;44.57;99814.16;5032983;28;20021;-62
2023/11/01 10:18:03;;;;;;;8.30;1.23;;;;;;;25.88;44.46;99807.06;5015244;28;22543;-63
2023/11/01 10:20:31;;;;;;;1.83;0.70;;;;;;;25.94;43.69;99809.59;5032703;28;20508;-63
2023/11/01 10:22:57;;;;;;;5.50;0.75;;;;;;;25.68;44.30;99813.09;5031540;28;20029;-62
2023/11/01 10:25:23;;;;;;;5.97;0.88;;;;;;;25.39;44.49;99814.25;5015034;28;20041;-63
2023/11/01 10:27:49;;;;;;;9.55;1.02;;;;;;;25.70;43.15;99799.94;5031573;28;20033;-63
2023/11/01 10:30:15;;;;;;;11.00;1.33;;;;;;;25.54;43.65;99800.81;5034553;28;20499;-62
2023/11/01 10:32:52;;;;;;;6.00;1.33;;;;;;;25.26;44.38;99798.16;5036796;28;20116;-63
2023/11/01 10:35:18;;;;;;;3.67;0.85;;;;;;;25.13;44.18;99793.81;5019023;28;20463;-62
2023/11/01 10:37:43;;;;;;;4.10;1.02;;;;;;;25.51;43.74;99795.84;5036484;28;20053;-63
2023/11/01 10:40:11;;;;;;;7.43;0.98;;;;;;;25.76;43.43;99782.47;5035205;28;20024;-63
2023/11/01 10:42:39;;;;;;;7.80;0.98;;;;;;;26.05;42.58;99785.84;5035499;28;20026;-62
2023/11/01 10:45:05;;;;;;;3.25;1.27;;;;;;;25.99;42.80;99773.97;5036321;28;20088;-62
2023/11/01 10:47:31;;;;;;;3.20;0.88;;;;;;;25.86;43.61;99774.38;5018759;28;20554;-63
2023/11/01 10:49:57;;;;;;;4.05;0.88;;;;;;;26.06;42.96;99765.56;5018696;28;20025;-63
2023/11/01 10:52:25;;;;;;;2.00;0.68;;;;;;;25.88;43.22;99774.94;5035098;28;20405;-63
2023/11/01 10:54:51;;;;;;;1.23;0.70;;;;;;;25.60;43.33;99772.34;5018724;28;20033;-63
2023/11/01 10:57:17;;;;;;;4.35;0.60;;;;;;;25.31;43.67;99765.31;5035363;28;20481;-62
2023/11/01 10:59:49;;;;;;;4.32;1.05;;;;;;;25.02;43.63;99752.78;5035124;28;20045;-62
2023/11/01 11:02:29;;;;;;;6.72;1.02;;;;;;;24.78;44.13;99761.16;5035258;28;20045;-62
2023/11/01 11:05:15;;;;;;;3.90;0.50;;;;;;;24.59;44.31;99756.97;5036912;28;20034;-62
2023/11/01 11:07:48;;;;;;;2.72;0.73;;;;;;;24.42;44.77;99756.09;5019553;28;20037;-63
2023/11/01 11:10:23;;;;;;;8.93;1.08;;;;;;;24.28;44.71;99752.00;5038489;28;20033;-62
2023/11/01 11:13:23;;;;;;;4.30;0.95;;;;;;;24.14;45.01;99739.69;5036579;28;20083;-62
2023/11/01 11:15:48;;;;;;;2.80;0.60;;;;;;;24.06;44.49;99740.03;5018556;28;20532;-62
2023/11/01 11:18:16;;;;;;;8.88;1.13;;;;;;;24.01;45.02;99734.47;5036046;28;20501;-63
2023/11/01 11:20:41;;;;;;;1.58;0.52;;;;;;;23.93;44.37;99732.09;5035842;28;20060;-62
2023/11/01 11:23:09;;;;;;;5.22;0.98;;;;;;;23.89;44.62;99725.47;5035696;28;20018;-62
2023/11/01 11:25:37;;;;;;;5.80;1.20;;;;;;;23.80;44.51;99726.91;5036740;28;20029;-61